sensor_id;sensor_type;location;lat;lon;timestamp;pressure;altitude;pressure_sealevel;temperature;humidity
57900;BME280;60605;53.716;19.940;2022-12-18T00:02:10;101780.95;;;-4.47;100.00
57900;BME280;60605;53.716;19.940;2022-12-18T00:07:14;101789.86;;;-4.47;100.00
57900;BME280;60605;53.716;19.940;2022-12-18T00:12:17;101795.59;;;-4.46;100.00
57900;BME280;60605;53.716;19.940;2022-12-18T00:17:25;101803.06;;;-4.44;100.00
57900;BME280;60605;53.716;19.940;2022-12-18T00:22:28;101808.05;;;-4.40;100.00
57900;BME280;60605;53.716;19.940;2022-12-18T00:27:31;101821.79;;;-4.37;100.00
57900;BME280;60605;53.716;19.940;2022-12-18T00:32:34;101828.77;;;-4.37;100.00
57900;BME280;60605;53.716;19.940;2022-12-18T00:37:37;101830.34;;;-4.37;100.00
57900;BME280;60605;53.716;19.940;2022-12-18T00:42:40;101832.64;;;-4.40;100.00
57900;BME280;60605;53.716;19.940;2022-12-18T00:47:59;101841.40;;;-4.43;100.00
57900;BME280;60605;53.716;19.940;2022-12-18T00:53:02;101847.73;;;-4.48;100.00
57900;BME280;60605;53.716;19.940;2022-12-18T00:58:06;101854.60;;;-4.52;100.00
57900;BME280;60605;53.716;19.940;2022-12-18T01:03:09;101859.71;;;-4.57;100.00
57900;BME280;60605;53.716;19.940;2022-12-18T01:08:12;101861.73;;;-4.65;100.00
57900;BME280;60605;53.716;19.940;2022-12-18T01:13:15;101859.02;;;-4.70;100.00
57900;BME280;60605;53.716;19.940;2022-12-18T01:18:18;101855.57;;;-4.74;100.00
57900;BME280;60605;53.716;19.940;2022-12-18T01:23:21;101861.03;;;-4.80;100.00
57900;BME280;60605;53.716;19.940;2022-12-18T01:28:25;101866.34;;;-4.86;100.00
57900;BME280;60605;53.716;19.940;2022-12-18T01:33:28;101886.59;;;-4.91;100.00
57900;BME280;60605;53.716;19.940;2022-12-18T01:38:31;101890.45;;;-4.94;100.00
57900;BME280;60605;53.716;19.940;2022-12-18T01:43:44;101900.80;;;-5.00;100.00
57900;BME280;60605;53.716;19.940;2022-12-18T01:48:48;101904.16;;;-5.07;100.00
57900;BME280;60605;53.716;19.940;2022-12-18T01:53:53;101904.56;;;-5.11;100.00
57900;BME280;60605;53.716;19.940;2022-12-18T01:59:04;101906.14;;;-5.12;100.00
57900;BME280;60605;53.716;19.940;2022-12-18T02:04:42;101901.95;;;-5.11;100.00
57900;BME280;60605;53.716;19.940;2022-12-18T02:09:43;101906.14;;;-5.11;100.00
57900;BME280;60605;53.716;19.940;2022-12-18T02:14:52;101910.83;;;-5.11;100.00
57900;BME280;60605;53.716;19.940;2022-12-18T02:20:07;101914.70;;;-5.16;100.00
57900;BME280;60605;53.716;19.940;2022-12-18T02:30:18;101927.79;;;-5.19;100.00
57900;BME280;60605;53.716;19.940;2022-12-18T02:35:23;101931.61;;;-5.20;100.00
57900;BME280;60605;53.716;19.940;2022-12-18T02:40:27;101931.45;;;-5.21;100.00
57900;BME280;60605;53.716;19.940;2022-12-18T02:45:31;101932.50;;;-5.21;100.00
57900;BME280;60605;53.716;19.940;2022-12-18T02:50:35;101942.61;;;-5.21;100.00
57900;BME280;60605;53.716;19.940;2022-12-18T02:55:45;101956.55;;;-5.23;100.00
57900;BME280;60605;53.716;19.940;2022-12-18T03:00:54;101965.98;;;-5.27;100.00
57900;BME280;60605;53.716;19.940;2022-12-18T03:06:05;101966.92;;;-5.35;100.00
57900;BME280;60605;53.716;19.940;2022-12-18T03:11:10;101972.55;;;-5.43;100.00
57900;BME280;60605;53.716;19.940;2022-12-18T03:16:24;101978.67;;;-5.47;100.00
57900;BME280;60605;53.716;19.940;2022-12-18T03:21:29;101990.00;;;-5.50;100.00
57900;BME280;60605;53.716;19.940;2022-12-18T03:26:35;101989.15;;;-5.54;100.00
57900;BME280;60605;53.716;19.940;2022-12-18T03:31:40;101989.68;;;-5.56;100.00
57900;BME280;60605;53.716;19.940;2022-12-18T03:36:44;101995.09;;;-5.58;100.00
57900;BME280;60605;53.716;19.940;2022-12-18T03:41:52;101992.16;;;-5.61;100.00
57900;BME280;60605;53.716;19.940;2022-12-18T03:57:43;102011.28;;;-5.59;100.00
57900;BME280;60605;53.716;19.940;2022-12-18T04:02:49;102015.63;;;-5.58;100.00
57900;BME280;60605;53.716;19.940;2022-12-18T04:07:54;102014.95;;;-5.63;100.00
57900;BME280;60605;53.716;19.940;2022-12-18T04:12:58;102020.72;;;-5.66;100.00
57900;BME280;60605;53.716;19.940;2022-12-18T04:18:02;102026.11;;;-5.65;100.00
57900;BME280;60605;53.716;19.940;2022-12-18T04:23:05;102032.55;;;-5.63;100.00
57900;BME280;60605;53.716;19.940;2022-12-18T04:28:08;102034.14;;;-5.67;100.00
57900;BME280;60605;53.716;19.940;2022-12-18T04:33:11;102037.63;;;-5.72;100.00
57900;BME280;60605;53.716;19.940;2022-12-18T04:38:15;102045.46;;;-5.73;100.00
57900;BME280;60605;53.716;19.940;2022-12-18T04:43:18;102053.64;;;-5.71;100.00
57900;BME280;60605;53.716;19.940;2022-12-18T04:48:21;102066.14;;;-5.68;100.00
57900;BME280;60605;53.716;19.940;2022-12-18T04:53:24;102070.81;;;-5.62;100.00
57900;BME280;60605;53.716;19.940;2022-12-18T04:58:27;102066.41;;;-5.55;100.00
57900;BME280;60605;53.716;19.940;2022-12-18T05:03:30;102067.26;;;-5.47;100.00
57900;BME280;60605;53.716;19.940;2022-12-18T05:08:34;102068.42;;;-5.37;100.00
57900;BME280;60605;53.716;19.940;2022-12-18T05:13:37;102076.02;;;-5.26;100.00
57900;BME280;60605;53.716;19.940;2022-12-18T05:18:41;102077.67;;;-5.12;100.00
57900;BME280;60605;53.716;19.940;2022-12-18T05:23:44;102083.66;;;-4.98;100.00
57900;BME280;60605;53.716;19.940;2022-12-18T05:28:48;102090.02;;;-4.84;100.00
57900;BME280;60605;53.716;19.940;2022-12-18T05:33:51;102097.04;;;-4.70;100.00
57900;BME280;60605;53.716;19.940;2022-12-18T05:38:54;102102.16;;;-4.57;100.00
57900;BME280;60605;53.716;19.940;2022-12-18T05:43:58;102108.86;;;-4.47;100.00
57900;BME280;60605;53.716;19.940;2022-12-18T05:49:01;102115.06;;;-4.37;100.00
57900;BME280;60605;53.716;19.940;2022-12-18T05:54:04;102120.39;;;-4.27;100.00
57900;BME280;60605;53.716;19.940;2022-12-18T05:59:08;102124.28;;;-4.15;100.00
57900;BME280;60605;53.716;19.940;2022-12-18T06:04:12;102128.35;;;-4.04;100.00
57900;BME280;60605;53.716;19.940;2022-12-18T06:09:16;102132.44;;;-3.95;100.00
57900;BME280;60605;53.716;19.940;2022-12-18T06:14:19;102135.69;;;-3.86;100.00
57900;BME280;60605;53.716;19.940;2022-12-18T06:19:22;102143.98;;;-3.79;100.00
57900;BME280;60605;53.716;19.940;2022-12-18T06:24:25;102148.23;;;-3.70;100.00
57900;BME280;60605;53.716;19.940;2022-12-18T06:29:28;102148.32;;;-3.62;100.00
57900;BME280;60605;53.716;19.940;2022-12-18T06:34:32;102154.53;;;-3.56;100.00
57900;BME280;60605;53.716;19.940;2022-12-18T06:39:35;102158.31;;;-3.51;100.00
57900;BME280;60605;53.716;19.940;2022-12-18T06:44:38;102167.50;;;-3.45;100.00
57900;BME280;60605;53.716;19.940;2022-12-18T06:49:41;102171.13;;;-3.41;100.00
57900;BME280;60605;53.716;19.940;2022-12-18T06:54:44;102179.12;;;-3.38;100.00
57900;BME280;60605;53.716;19.940;2022-12-18T06:59:48;102189.75;;;-3.35;100.00
57900;BME280;60605;53.716;19.940;2022-12-18T07:04:51;102197.70;;;-3.29;100.00
57900;BME280;60605;53.716;19.940;2022-12-18T07:09:54;102205.83;;;-3.23;100.00
57900;BME280;60605;53.716;19.940;2022-12-18T07:14:57;102213.11;;;-3.19;100.00
57900;BME280;60605;53.716;19.940;2022-12-18T07:20:00;102220.07;;;-3.15;100.00
57900;BME280;60605;53.716;19.940;2022-12-18T07:25:04;102227.88;;;-3.10;100.00
57900;BME280;60605;53.716;19.940;2022-12-18T07:30:08;102235.33;;;-3.05;100.00
57900;BME280;60605;53.716;19.940;2022-12-18T07:35:12;102239.08;;;-2.99;100.00
57900;BME280;60605;53.716;19.940;2022-12-18T07:40:15;102243.67;;;-2.89;100.00
57900;BME280;60605;53.716;19.940;2022-12-18T07:45:19;102246.37;;;-2.81;100.00
57900;BME280;60605;53.716;19.940;2022-12-18T07:50:22;102249.82;;;-2.77;100.00
57900;BME280;60605;53.716;19.940;2022-12-18T07:55:26;102259.05;;;-2.74;100.00
57900;BME280;60605;53.716;19.940;2022-12-18T08:00:31;102251.45;;;-2.69;100.00
57900;BME280;60605;53.716;19.940;2022-12-18T08:05:34;102253.03;;;-2.56;100.00
57900;BME280;60605;53.716;19.940;2022-12-18T08:10:38;102256.86;;;-2.43;100.00
57900;BME280;60605;53.716;19.940;2022-12-18T08:15:41;102258.15;;;-2.36;100.00
57900;BME280;60605;53.716;19.940;2022-12-18T08:20:45;102258.50;;;-2.35;100.00
57900;BME280;60605;53.716;19.940;2022-12-18T08:25:48;102273.27;;;-2.29;100.00
57900;BME280;60605;53.716;19.940;2022-12-18T08:30:52;102282.77;;;-1.87;100.00
57900;BME280;60605;53.716;19.940;2022-12-18T08:35:57;102282.38;;;-0.99;100.00
57900;BME280;60605;53.716;19.940;2022-12-18T08:41:01;102292.67;;;0.15;100.00
57900;BME280;60605;53.716;19.940;2022-12-18T08:46:05;102301.48;;;0.35;100.00
57900;BME280;60605;53.716;19.940;2022-12-18T08:51:08;102305.33;;;0.36;100.00
57900;BME280;60605;53.716;19.940;2022-12-18T08:56:12;102315.03;;;0.20;100.00
57900;BME280;60605;53.716;19.940;2022-12-18T09:01:16;102321.42;;;-0.13;99.90
57900;BME280;60605;53.716;19.940;2022-12-18T09:06:20;102331.91;;;-0.50;99.93
57900;BME280;60605;53.716;19.940;2022-12-18T09:11:25;102346.98;;;-0.83;100.00
57900;BME280;60605;53.716;19.940;2022-12-18T09:16:29;102348.83;;;-1.07;100.00
57900;BME280;60605;53.716;19.940;2022-12-18T09:21:35;102334.19;;;-1.22;100.00
57900;BME280;60605;53.716;19.940;2022-12-18T09:26:39;102335.35;;;-1.18;100.00
57900;BME280;60605;53.716;19.940;2022-12-18T09:31:45;102347.33;;;-1.11;100.00
57900;BME280;60605;53.716;19.940;2022-12-18T09:36:48;102349.27;;;-1.12;100.00
57900;BME280;60605;53.716;19.940;2022-12-18T09:41:52;102351.77;;;-1.23;100.00
57900;BME280;60605;53.716;19.940;2022-12-18T09:47:05;102355.14;;;-1.26;100.00
57900;BME280;60605;53.716;19.940;2022-12-18T09:52:12;102357.08;;;-1.07;100.00
57900;BME280;60605;53.716;19.940;2022-12-18T09:57:18;102361.17;;;-0.65;100.00
57900;BME280;60605;53.716;19.940;2022-12-18T10:02:23;102354.34;;;-0.08;100.00
57900;BME280;60605;53.716;19.940;2022-12-18T10:07:31;102341.89;;;0.21;98.87
57900;BME280;60605;53.716;19.940;2022-12-18T10:18:12;102341.11;;;-0.29;96.50
57900;BME280;60605;53.716;19.940;2022-12-18T10:23:36;102347.68;;;-0.58;96.47
57900;BME280;60605;53.716;19.940;2022-12-18T10:28:49;102343.41;;;-0.81;96.31
57900;BME280;60605;53.716;19.940;2022-12-18T10:33:54;102339.12;;;-0.86;97.87
57900;BME280;60605;53.716;19.940;2022-12-18T10:49:25;102336.77;;;-1.00;97.66
57900;BME280;60605;53.716;19.940;2022-12-18T10:54:29;102331.68;;;-1.09;97.20
57900;BME280;60605;53.716;19.940;2022-12-18T10:59:33;102340.23;;;-1.26;97.05
57900;BME280;60605;53.716;19.940;2022-12-18T11:04:52;102348.17;;;-1.39;97.75
57900;BME280;60605;53.716;19.940;2022-12-18T11:10:02;102337.03;;;-1.43;98.25
57900;BME280;60605;53.716;19.940;2022-12-18T11:15:13;102335.24;;;-1.51;98.14
57900;BME280;60605;53.716;19.940;2022-12-18T11:20:20;102339.84;;;-1.64;98.13
57900;BME280;60605;53.716;19.940;2022-12-18T11:25:25;102339.42;;;-1.72;99.15
57900;BME280;60605;53.716;19.940;2022-12-18T11:30:36;102349.77;;;-1.73;99.37
57900;BME280;60605;53.716;19.940;2022-12-18T11:40:44;102350.34;;;-1.97;99.07
57900;BME280;60605;53.716;19.940;2022-12-18T11:50:55;102353.02;;;-2.13;99.93
57900;BME280;60605;53.716;19.940;2022-12-18T12:06:28;102373.05;;;-2.19;100.00
57900;BME280;60605;53.716;19.940;2022-12-18T12:12:10;102379.18;;;-2.19;100.00
57900;BME280;60605;53.716;19.940;2022-12-18T12:22:13;102389.58;;;-2.25;100.00
57900;BME280;60605;53.716;19.940;2022-12-18T12:37:51;102404.35;;;-2.44;100.00
57900;BME280;60605;53.716;19.940;2022-12-18T12:43:00;102401.29;;;-2.52;100.00
57900;BME280;60605;53.716;19.940;2022-12-18T12:48:27;102392.52;;;-2.64;100.00
57900;BME280;60605;53.716;19.940;2022-12-18T12:53:35;102392.67;;;-2.78;100.00
57900;BME280;60605;53.716;19.940;2022-12-18T13:09:06;102393.58;;;-3.15;100.00
57900;BME280;60605;53.716;19.940;2022-12-18T13:14:30;102408.70;;;-3.27;100.00
57900;BME280;60605;53.716;19.940;2022-12-18T13:19:35;102409.67;;;-3.39;100.00
57900;BME280;60605;53.716;19.940;2022-12-18T13:24:38;102414.84;;;-3.51;100.00
57900;BME280;60605;53.716;19.940;2022-12-18T13:29:45;102426.80;;;-3.64;100.00
57900;BME280;60605;53.716;19.940;2022-12-18T13:34:51;102424.63;;;-3.79;100.00
57900;BME280;60605;53.716;19.940;2022-12-18T13:40:50;102430.48;;;-3.95;100.00
57900;BME280;60605;53.716;19.940;2022-12-18T13:46:04;102436.52;;;-4.15;100.00
57900;BME280;60605;53.716;19.940;2022-12-18T13:51:09;102432.94;;;-4.34;100.00
57900;BME280;60605;53.716;19.940;2022-12-18T13:56:16;102433.52;;;-4.53;100.00
57900;BME280;60605;53.716;19.940;2022-12-18T14:01:23;102445.42;;;-4.70;100.00
57900;BME280;60605;53.716;19.940;2022-12-18T14:06:27;102459.05;;;-4.85;100.00
57900;BME280;60605;53.716;19.940;2022-12-18T14:11:33;102465.86;;;-5.00;100.00
57900;BME280;60605;53.716;19.940;2022-12-18T14:16:40;102466.39;;;-5.08;100.00
57900;BME280;60605;53.716;19.940;2022-12-18T14:21:45;102471.27;;;-5.07;100.00
57900;BME280;60605;53.716;19.940;2022-12-18T14:26:49;102479.45;;;-5.01;100.00
57900;BME280;60605;53.716;19.940;2022-12-18T14:37:14;102485.36;;;-4.85;100.00
57900;BME280;60605;53.716;19.940;2022-12-18T14:42:18;102492.50;;;-4.79;100.00
57900;BME280;60605;53.716;19.940;2022-12-18T14:47:22;102491.61;;;-4.76;100.00
57900;BME280;60605;53.716;19.940;2022-12-18T14:52:26;102495.80;;;-4.76;100.00
57900;BME280;60605;53.716;19.940;2022-12-18T14:57:32;102495.63;;;-4.77;100.00
57900;BME280;60605;53.716;19.940;2022-12-18T15:02:38;102495.10;;;-4.79;100.00
57900;BME280;60605;53.716;19.940;2022-12-18T15:07:43;102496.50;;;-4.79;100.00
57900;BME280;60605;53.716;19.940;2022-12-18T15:12:48;102499.64;;;-4.79;100.00
57900;BME280;60605;53.716;19.940;2022-12-18T15:17:57;102497.72;;;-4.77;100.00
57900;BME280;60605;53.716;19.940;2022-12-18T15:23:01;102499.10;;;-4.75;100.00
57900;BME280;60605;53.716;19.940;2022-12-18T15:28:14;102501.91;;;-4.74;100.00
57900;BME280;60605;53.716;19.940;2022-12-18T15:33:23;102498.95;;;-4.71;100.00
57900;BME280;60605;53.716;19.940;2022-12-18T15:38:27;102501.20;;;-4.70;100.00
57900;BME280;60605;53.716;19.940;2022-12-18T15:43:31;102505.90;;;-4.69;100.00
57900;BME280;60605;53.716;19.940;2022-12-18T15:48:41;102503.46;;;-4.67;100.00
57900;BME280;60605;53.716;19.940;2022-12-18T15:53:45;102495.27;;;-4.63;100.00
57900;BME280;60605;53.716;19.940;2022-12-18T15:58:49;102494.21;;;-4.62;100.00
57900;BME280;60605;53.716;19.940;2022-12-18T16:03:52;102500.14;;;-4.62;100.00
57900;BME280;60605;53.716;19.940;2022-12-18T16:08:56;102499.61;;;-4.60;100.00
57900;BME280;60605;53.716;19.940;2022-12-18T16:14:00;102494.73;;;-4.58;100.00
57900;BME280;60605;53.716;19.940;2022-12-18T16:19:03;102499.08;;;-4.57;100.00
57900;BME280;60605;53.716;19.940;2022-12-18T16:24:09;102507.45;;;-4.56;100.00
57900;BME280;60605;53.716;19.940;2022-12-18T16:29:16;102507.10;;;-4.56;100.00
57900;BME280;60605;53.716;19.940;2022-12-18T16:34:20;102502.39;;;-4.53;100.00
57900;BME280;60605;53.716;19.940;2022-12-18T16:39:30;102511.98;;;-4.50;100.00
57900;BME280;60605;53.716;19.940;2022-12-18T16:44:35;102507.79;;;-4.47;100.00
57900;BME280;60605;53.716;19.940;2022-12-18T16:49:39;102500.11;;;-4.48;100.00
57900;BME280;60605;53.716;19.940;2022-12-18T16:54:42;102502.73;;;-4.51;100.00
57900;BME280;60605;53.716;19.940;2022-12-18T16:59:45;102504.31;;;-4.52;100.00
57900;BME280;60605;53.716;19.940;2022-12-18T17:04:48;102509.36;;;-4.50;100.00
57900;BME280;60605;53.716;19.940;2022-12-18T17:09:52;102520.16;;;-4.49;100.00
57900;BME280;60605;53.716;19.940;2022-12-18T17:14:56;102535.52;;;-4.48;100.00
57900;BME280;60605;53.716;19.940;2022-12-18T17:19:59;102547.88;;;-4.46;100.00
57900;BME280;60605;53.716;19.940;2022-12-18T17:25:02;102546.30;;;-4.45;100.00
57900;BME280;60605;53.716;19.940;2022-12-18T17:30:09;102533.08;;;-4.47;100.00
57900;BME280;60605;53.716;19.940;2022-12-18T17:35:13;102530.27;;;-4.50;100.00
57900;BME280;60605;53.716;19.940;2022-12-18T17:40:17;102532.70;;;-4.52;100.00
57900;BME280;60605;53.716;19.940;2022-12-18T17:45:20;102519.29;;;-4.53;100.00
57900;BME280;60605;53.716;19.940;2022-12-18T17:50:24;102503.27;;;-4.55;100.00
57900;BME280;60605;53.716;19.940;2022-12-18T17:55:27;102504.14;;;-4.57;100.00
57900;BME280;60605;53.716;19.940;2022-12-18T18:00:31;102499.27;;;-4.61;100.00
57900;BME280;60605;53.716;19.940;2022-12-18T18:05:35;102495.44;;;-4.63;100.00
57900;BME280;60605;53.716;19.940;2022-12-18T18:10:39;102507.98;;;-4.64;100.00
57900;BME280;60605;53.716;19.940;2022-12-18T18:15:42;102499.11;;;-4.66;100.00
57900;BME280;60605;53.716;19.940;2022-12-18T18:20:47;102485.34;;;-4.74;100.00
57900;BME280;60605;53.716;19.940;2022-12-18T18:25:53;102480.83;;;-4.86;100.00
57900;BME280;60605;53.716;19.940;2022-12-18T18:30:57;102490.06;;;-4.94;100.00
57900;BME280;60605;53.716;19.940;2022-12-18T18:36:01;102499.47;;;-4.97;100.00
57900;BME280;60605;53.716;19.940;2022-12-18T18:41:04;102494.77;;;-4.98;100.00
57900;BME280;60605;53.716;19.940;2022-12-18T18:46:08;102504.35;;;-4.99;100.00
57900;BME280;60605;53.716;19.940;2022-12-18T18:51:14;102512.02;;;-5.07;100.00
57900;BME280;60605;53.716;19.940;2022-12-18T18:56:23;102515.66;;;-5.20;100.00
57900;BME280;60605;53.716;19.940;2022-12-18T19:01:49;102509.54;;;-5.38;100.00
57900;BME280;60605;53.716;19.940;2022-12-18T19:06:54;102502.72;;;-5.57;100.00
57900;BME280;60605;53.716;19.940;2022-12-18T19:11:58;102504.06;;;-5.73;100.00
57900;BME280;60605;53.716;19.940;2022-12-18T19:17:20;102509.60;;;-5.92;100.00
57900;BME280;60605;53.716;19.940;2022-12-18T19:22:31;102504.83;;;-6.12;100.00
57900;BME280;60605;53.716;19.940;2022-12-18T19:27:36;102508.91;;;-6.31;100.00
57900;BME280;60605;53.716;19.940;2022-12-18T19:32:43;102515.23;;;-6.50;100.00
57900;BME280;60605;53.716;19.940;2022-12-18T19:37:46;102524.66;;;-6.69;100.00
57900;BME280;60605;53.716;19.940;2022-12-18T19:42:50;102534.59;;;-6.87;100.00
57900;BME280;60605;53.716;19.940;2022-12-18T19:47:55;102535.67;;;-7.04;100.00
57900;BME280;60605;53.716;19.940;2022-12-18T19:53:05;102536.73;;;-7.20;100.00
57900;BME280;60605;53.716;19.940;2022-12-18T19:58:11;102547.73;;;-7.32;100.00
57900;BME280;60605;53.716;19.940;2022-12-18T20:03:14;102549.89;;;-7.42;100.00
57900;BME280;60605;53.716;19.940;2022-12-18T20:08:32;102540.10;;;-7.49;100.00
57900;BME280;60605;53.716;19.940;2022-12-18T20:13:35;102538.87;;;-7.51;100.00
57900;BME280;60605;53.716;19.940;2022-12-18T20:18:39;102536.41;;;-7.53;100.00
57900;BME280;60605;53.716;19.940;2022-12-18T20:23:43;102531.53;;;-7.55;100.00
57900;BME280;60605;53.716;19.940;2022-12-18T20:28:47;102534.09;;;-7.58;100.00
57900;BME280;60605;53.716;19.940;2022-12-18T20:33:51;102534.41;;;-7.62;100.00
57900;BME280;60605;53.716;19.940;2022-12-18T20:38:56;102526.42;;;-7.62;100.00
57900;BME280;60605;53.716;19.940;2022-12-18T20:44:04;102527.25;;;-7.66;100.00
57900;BME280;60605;53.716;19.940;2022-12-18T20:49:11;102530.84;;;-7.71;100.00
57900;BME280;60605;53.716;19.940;2022-12-18T20:54:14;102544.46;;;-7.77;100.00
57900;BME280;60605;53.716;19.940;2022-12-18T20:59:18;102550.64;;;-7.83;100.00
57900;BME280;60605;53.716;19.940;2022-12-18T21:04:21;102544.11;;;-7.92;100.00
57900;BME280;60605;53.716;19.940;2022-12-18T21:09:25;102530.27;;;-8.05;100.00
57900;BME280;60605;53.716;19.940;2022-12-18T21:14:29;102514.92;;;-8.12;100.00
57900;BME280;60605;53.716;19.940;2022-12-18T21:19:35;102504.15;;;-8.14;100.00
57900;BME280;60605;53.716;19.940;2022-12-18T21:24:39;102498.39;;;-8.17;100.00
57900;BME280;60605;53.716;19.940;2022-12-18T21:29:42;102492.81;;;-8.20;100.00
57900;BME280;60605;53.716;19.940;2022-12-18T21:34:46;102495.41;;;-8.20;100.00
57900;BME280;60605;53.716;19.940;2022-12-18T21:39:50;102489.00;;;-8.20;100.00
57900;BME280;60605;53.716;19.940;2022-12-18T21:44:53;102486.55;;;-8.24;100.00
57900;BME280;60605;53.716;19.940;2022-12-18T21:49:57;102498.09;;;-8.29;100.00
57900;BME280;60605;53.716;19.940;2022-12-18T21:55:00;102510.20;;;-8.31;100.00
57900;BME280;60605;53.716;19.940;2022-12-18T22:00:14;102519.33;;;-8.34;100.00
57900;BME280;60605;53.716;19.940;2022-12-18T22:05:21;102518.28;;;-8.35;100.00
57900;BME280;60605;53.716;19.940;2022-12-18T22:10:25;102514.45;;;-8.37;100.00
57900;BME280;60605;53.716;19.940;2022-12-18T22:15:28;102515.13;;;-8.38;100.00
57900;BME280;60605;53.716;19.940;2022-12-18T22:20:31;102519.80;;;-8.38;100.00
57900;BME280;60605;53.716;19.940;2022-12-18T22:25:35;102515.40;;;-8.43;100.00
57900;BME280;60605;53.716;19.940;2022-12-18T22:30:41;102511.69;;;-8.48;100.00
57900;BME280;60605;53.716;19.940;2022-12-18T22:35:45;102503.65;;;-8.53;100.00
57900;BME280;60605;53.716;19.940;2022-12-18T22:40:49;102503.64;;;-8.55;100.00
57900;BME280;60605;53.716;19.940;2022-12-18T22:45:52;102508.10;;;-8.57;100.00
57900;BME280;60605;53.716;19.940;2022-12-18T22:50:56;102507.70;;;-8.61;100.00
57900;BME280;60605;53.716;19.940;2022-12-18T22:56:01;102508.81;;;-8.68;100.00
57900;BME280;60605;53.716;19.940;2022-12-18T23:01:05;102511.11;;;-8.76;100.00
57900;BME280;60605;53.716;19.940;2022-12-18T23:06:08;102513.23;;;-8.83;100.00
57900;BME280;60605;53.716;19.940;2022-12-18T23:11:12;102520.56;;;-8.91;100.00
57900;BME280;60605;53.716;19.940;2022-12-18T23:16:18;102521.36;;;-8.96;100.00
57900;BME280;60605;53.716;19.940;2022-12-18T23:21:22;102515.60;;;-8.98;100.00
57900;BME280;60605;53.716;19.940;2022-12-18T23:26:27;102513.90;;;-8.97;100.00
57900;BME280;60605;53.716;19.940;2022-12-18T23:31:31;102514.12;;;-8.94;100.00
57900;BME280;60605;53.716;19.940;2022-12-18T23:36:35;102517.88;;;-8.86;100.00
57900;BME280;60605;53.716;19.940;2022-12-18T23:41:48;102514.31;;;-8.70;100.00
57900;BME280;60605;53.716;19.940;2022-12-18T23:46:51;102512.54;;;-8.50;100.00
57900;BME280;60605;53.716;19.940;2022-12-18T23:51:54;102509.72;;;-8.28;100.00
57900;BME280;60605;53.716;19.940;2022-12-18T23:56:58;102504.58;;;-8.07;100.00
